Time;durP1;ratioP1;P1;durP2;ratioP2;P2;SDS_P1;SDS_P2;PMS_P1;PMS_P2;Temp;Humidity;BMP_temperature;BMP_pressure;BME280_temperature;BME280_humidity;BME280_pressure;Samples;Min_cycle;Max_cycle;Signal;HPM_P1;HPM_P2
2024/01/25 00:01:21;;;;;;;37.10;6.10;;;;;;;;;;5071454;28;20053;-78
2024/01/25 00:03:47;;;;;;;40.45;7.97;;;;;;;;;;5072093;28;20411;-78
2024/01/25 00:06:13;;;;;;;37.53;8.68;;;;;;;;;;5071762;28;20035;-80
2024/01/25 00:08:39;;;;;;;33.40;7.30;;;;;;;;;;5073173;28;20021;-79
2024/01/25 00:11:05;;;;;;;28.67;5.80;;;;;;;;;;5073006;28;20025;-79
2024/01/25 00:13:31;;;;;;;27.77;5.63;;;;;;;;;;5071900;28;20097;-80
2024/01/25 00:15:57;;;;;;;34.00;7.72;;;;;;;;;;5071903;28;20460;-79
2024/01/25 00:18:23;;;;;;;38.92;5.93;;;;;;;;;;5071711;28;20028;-78
2024/01/25 00:20:49;;;;;;;34.40;6.72;;;;;;;;;;5072317;28;20066;-78
2024/01/25 00:23:15;;;;;;;34.88;5.80;;;;;;;;;;5071849;28;20028;-79
2024/01/25 00:25:41;;;;;;;36.78;6.00;;;;;;;;;;5072051;28;20028;-79
2024/01/25 00:28:07;;;;;;;30.50;6.00;;;;;;;;;;5071714;28;20387;-80
2024/01/25 00:30:33;;;;;;;35.63;6.30;;;;;;;;;;5072949;28;20024;-82
2024/01/25 00:33:01;;;;;;;29.27;7.13;;;;;;;;;;5072715;28;20028;-81
2024/01/25 00:35:27;;;;;;;36.90;7.25;;;;;;;;;;5073059;28;20029;-82
2024/01/25 00:37:53;;;;;;;32.05;5.70;;;;;;;;;;5073583;28;20086;-82
2024/01/25 00:40:20;;;;;;;38.25;7.38;;;;;;;;;;5073437;28;20411;-80
2024/01/25 00:42:53;;;;;;;34.10;6.10;;;;;;;;;;5073958;28;20438;-80
2024/01/25 00:45:19;;;;;;;31.10;6.50;;;;;;;;;;5076170;28;20021;-81
2024/01/25 00:47:45;;;;;;;40.08;6.45;;;;;;;;;;5090599;28;20031;-80
2024/01/25 00:50:12;;;;;;;36.78;7.03;;;;;;;;;;5088189;28;20049;-80
2024/01/25 00:52:38;;;;;;;39.33;6.10;;;;;;;;;;5080060;28;20479;-80
2024/01/25 00:55:04;;;;;;;39.92;6.60;;;;;;;;;;5072983;28;20293;-81
2024/01/25 00:57:30;;;;;;;42.40;6.68;;;;;;;;;;5071824;28;20119;-81
2024/01/25 00:59:57;;;;;;;37.85;8.60;;;;;;;;;;5073903;28;20020;-80
2024/01/25 01:02:23;;;;;;;31.13;5.28;;;;;;;;;;5072402;28;20139;-81
2024/01/25 01:04:49;;;;;;;34.58;6.13;;;;;;;;;;5071518;28;20478;-79
2024/01/25 01:07:15;;;;;;;50.05;7.72;;;;;;;;;;5071415;28;20031;-79
2024/01/25 01:09:41;;;;;;;42.13;6.55;;;;;;;;;;5072226;28;20025;-80
2024/01/25 01:12:08;;;;;;;39.85;6.53;;;;;;;;;;5072023;28;20077;-80
2024/01/25 01:14:34;;;;;;;33.90;6.28;;;;;;;;;;5072122;28;20021;-82
2024/01/25 01:17:00;;;;;;;31.80;6.03;;;;;;;;;;5071826;28;20029;-80
2024/01/25 01:19:26;;;;;;;35.83;6.72;;;;;;;;;;5071557;28;20435;-81
2024/01/25 01:21:52;;;;;;;34.55;6.07;;;;;;;;;;5072333;28;20021;-82
2024/01/25 01:24:18;;;;;;;35.05;7.00;;;;;;;;;;5072674;28;20020;-80
2024/01/25 01:26:44;;;;;;;39.55;6.50;;;;;;;;;;5071154;28;20031;-81
2024/01/25 01:29:10;;;;;;;30.75;6.80;;;;;;;;;;5071219;28;20024;-80
2024/01/25 01:31:36;;;;;;;29.95;6.65;;;;;;;;;;5072740;28;20103;-79
2024/01/25 01:34:02;;;;;;;36.63;7.85;;;;;;;;;;5071196;28;20056;-78
2024/01/25 01:36:28;;;;;;;30.38;6.35;;;;;;;;;;5071169;28;20061;-79
2024/01/25 01:38:55;;;;;;;32.40;5.82;;;;;;;;;;5071259;28;20032;-79
2024/01/25 01:41:21;;;;;;;30.73;7.03;;;;;;;;;;5070986;28;20025;-79
2024/01/25 01:43:47;;;;;;;34.95;6.38;;;;;;;;;;5071124;28;20025;-77
2024/01/25 01:46:18;;;;;;;28.80;6.03;;;;;;;;;;5070680;28;20024;-79
2024/01/25 01:48:44;;;;;;;36.45;5.57;;;;;;;;;;5071246;28;20086;-80
2024/01/25 01:51:10;;;;;;;27.27;5.13;;;;;;;;;;5071271;28;20024;-80
2024/01/25 01:53:36;;;;;;;34.88;5.75;;;;;;;;;;5070757;28;20052;-79
2024/01/25 01:56:03;;;;;;;37.72;7.68;;;;;;;;;;5071931;28;20468;-79
2024/01/25 01:58:29;;;;;;;33.78;6.90;;;;;;;;;;5071717;28;20460;-80
2024/01/25 02:00:57;;;;;;;30.70;6.65;;;;;;;;;;5071744;28;20473;-80
2024/01/25 02:03:23;;;;;;;37.88;6.55;;;;;;;;;;5071803;28;20063;-80
2024/01/25 02:05:49;;;;;;;27.67;6.15;;;;;;;;;;5070757;28;20477;-79
2024/01/25 02:08:15;;;;;;;25.25;5.47;;;;;;;;;;5070205;28;20032;-79
2024/01/25 02:10:41;;;;;;;24.25;5.10;;;;;;;;;;5070544;28;20040;-80
2024/01/25 02:13:07;;;;;;;47.85;7.13;;;;;;;;;;5070461;28;20020;-79
2024/01/25 02:15:33;;;;;;;37.33;6.78;;;;;;;;;;5070188;28;20025;-78
2024/01/25 02:17:59;;;;;;;45.95;6.85;;;;;;;;;;5073927;28;20502;-78
2024/01/25 02:20:25;;;;;;;41.80;7.82;;;;;;;;;;5073831;28;20056;-80
2024/01/25 02:22:51;;;;;;;37.83;9.70;;;;;;;;;;5075334;28;20023;-81
2024/01/25 02:25:17;;;;;;;41.47;7.45;;;;;;;;;;5073836;28;20025;-81
2024/01/25 02:27:43;;;;;;;38.80;7.38;;;;;;;;;;5073917;28;20035;-80
2024/01/25 02:30:10;;;;;;;38.83;7.13;;;;;;;;;;5073821;28;20495;-80
2024/01/25 02:32:36;;;;;;;35.28;7.82;;;;;;;;;;5073750;28;20051;-80
2024/01/25 02:35:02;;;;;;;34.20;5.85;;;;;;;;;;5073819;28;20052;-80
2024/01/25 02:37:28;;;;;;;47.85;6.82;;;;;;;;;;5073659;28;20091;-80
2024/01/25 02:39:54;;;;;;;28.70;6.32;;;;;;;;;;5073909;28;20491;-80
2024/01/25 02:42:20;;;;;;;33.50;5.90;;;;;;;;;;5073586;28;20031;-79
2024/01/25 02:44:46;;;;;;;31.48;6.70;;;;;;;;;;5073680;28;20055;-79
2024/01/25 02:47:15;;;;;;;40.13;7.30;;;;;;;;;;5073702;28;20028;-79
2024/01/25 02:49:40;;;;;;;44.42;7.43;;;;;;;;;;5073591;28;20387;-79
2024/01/25 02:52:07;;;;;;;35.75;7.40;;;;;;;;;;5073839;28;20059;-79
2024/01/25 02:54:36;;;;;;;34.60;5.90;;;;;;;;;;5074838;28;20086;-80
2024/01/25 02:57:02;;;;;;;33.05;6.30;;;;;;;;;;5081241;28;20090;-81
2024/01/25 02:59:28;;;;;;;35.53;7.13;;;;;;;;;;5083005;28;20025;-77
2024/01/25 03:01:55;;;;;;;32.28;6.93;;;;;;;;;;5081169;28;20053;-78
2024/01/25 03:04:21;;;;;;;35.03;6.93;;;;;;;;;;5077095;28;20407;-78
2024/01/25 03:06:47;;;;;;;35.45;6.45;;;;;;;;;;5076198;28;20025;-80
2024/01/25 03:09:13;;;;;;;41.90;7.63;;;;;;;;;;5073188;28;20035;-81
2024/01/25 03:11:39;;;;;;;40.72;7.03;;;;;;;;;;5073159;28;20384;-81
2024/01/25 03:14:05;;;;;;;27.40;5.45;;;;;;;;;;5073232;28;20036;-80
2024/01/25 03:16:31;;;;;;;28.10;6.10;;;;;;;;;;5072606;28;20051;-80
2024/01/25 03:18:57;;;;;;;35.60;6.82;;;;;;;;;;5072726;28;20527;-81
2024/01/25 03:21:23;;;;;;;45.85;8.50;;;;;;;;;;5072638;28;20032;-80
2024/01/25 03:23:49;;;;;;;43.75;8.85;;;;;;;;;;5073909;28;20511;-81
2024/01/25 03:26:15;;;;;;;43.63;7.00;;;;;;;;;;5073935;28;20028;-80
2024/01/25 03:28:41;;;;;;;43.17;7.28;;;;;;;;;;5073657;28;20059;-80
2024/01/25 03:31:07;;;;;;;31.67;6.25;;;;;;;;;;5073681;28;20392;-81
2024/01/25 03:33:33;;;;;;;51.45;8.40;;;;;;;;;;5072443;28;20112;-80
2024/01/25 03:36:03;;;;;;;37.30;7.85;;;;;;;;;;5072572;28;20027;-80
2024/01/25 03:38:29;;;;;;;47.67;8.02;;;;;;;;;;5072402;28;20119;-80
2024/01/25 03:40:56;;;;;;;39.83;6.20;;;;;;;;;;5073633;28;20052;-80
2024/01/25 03:43:23;;;;;;;45.92;7.70;;;;;;;;;;5072362;28;20036;-79
2024/01/25 03:45:49;;;;;;;34.75;5.75;;;;;;;;;;5072554;28;20525;-80
2024/01/25 03:48:16;;;;;;;48.00;8.45;;;;;;;;;;5072306;28;20032;-79
2024/01/25 03:50:42;;;;;;;46.42;8.45;;;;;;;;;;5073400;28;20082;-80
2024/01/25 03:53:08;;;;;;;48.65;7.75;;;;;;;;;;5073937;28;20465;-79
2024/01/25 03:55:34;;;;;;;47.15;7.55;;;;;;;;;;5071959;28;20025;-79
2024/01/25 03:58:00;;;;;;;35.13;6.35;;;;;;;;;;5072203;28;20028;-80
2024/01/25 04:00:26;;;;;;;35.13;6.22;;;;;;;;;;5071856;28;20527;-80
2024/01/25 04:02:52;;;;;;;60.63;8.82;;;;;;;;;;5073445;28;20044;-83
2024/01/25 04:05:18;;;;;;;56.58;7.82;;;;;;;;;;5073516;28;20025;-83
2024/01/25 04:07:44;;;;;;;43.88;8.15;;;;;;;;;;5071663;28;20047;-79
2024/01/25 04:10:10;;;;;;;36.80;7.65;;;;;;;;;;5073066;28;20238;-79
2024/01/25 04:12:36;;;;;;;31.55;5.80;;;;;;;;;;5071209;28;20027;-78
2024/01/25 04:15:03;;;;;;;39.05;7.18;;;;;;;;;;5073256;28;20044;-78
2024/01/25 04:17:29;;;;;;;47.50;7.72;;;;;;;;;;5071435;28;20035;-79
2024/01/25 04:19:55;;;;;;;34.42;7.45;;;;;;;;;;5072570;28;20388;-78
2024/01/25 04:22:21;;;;;;;45.33;7.50;;;;;;;;;;5073080;28;20479;-78
2024/01/25 04:24:48;;;;;;;44.35;8.90;;;;;;;;;;5071366;28;20060;-79
2024/01/25 04:27:14;;;;;;;39.33;5.65;;;;;;;;;;5071645;28;20035;-79
2024/01/25 04:29:44;;;;;;;42.45;7.88;;;;;;;;;;5071558;28;20025;-80
2024/01/25 04:32:10;;;;;;;51.55;8.23;;;;;;;;;;5071608;28;20059;-79
2024/01/25 04:34:36;;;;;;;45.45;8.00;;;;;;;;;;5071324;28;20108;-79
2024/01/25 04:37:03;;;;;;;47.63;7.70;;;;;;;;;;5072572;28;20025;-79
2024/01/25 04:39:29;;;;;;;51.80;7.20;;;;;;;;;;5072073;28;20043;-79
2024/01/25 04:41:55;;;;;;;36.38;6.68;;;;;;;;;;5072632;28;20539;-80
2024/01/25 04:44:21;;;;;;;46.53;6.47;;;;;;;;;;5073029;28;20021;-79
2024/01/25 04:46:47;;;;;;;28.58;6.13;;;;;;;;;;5071307;28;20025;-79
2024/01/25 04:49:13;;;;;;;49.05;7.43;;;;;;;;;;5071272;28;20438;-79
2024/01/25 04:51:39;;;;;;;41.30;7.78;;;;;;;;;;5071154;28;20082;-80
2024/01/25 04:54:06;;;;;;;40.58;6.72;;;;;;;;;;5071382;28;20024;-80
2024/01/25 04:56:32;;;;;;;53.80;8.30;;;;;;;;;;5070899;28;20024;-81
2024/01/25 04:58:58;;;;;;;40.53;6.90;;;;;;;;;;5072621;28;20092;-81
2024/01/25 05:01:24;;;;;;;41.83;8.00;;;;;;;;;;5071152;28;20460;-81
2024/01/25 05:03:51;;;;;;;39.88;6.85;;;;;;;;;;5071360;28;20052;-81
2024/01/25 05:06:17;;;;;;;37.63;6.95;;;;;;;;;;5071480;28;20373;-81
2024/01/25 05:08:43;;;;;;;31.25;7.63;;;;;;;;;;5072099;28;20032;-81
2024/01/25 05:11:10;;;;;;;32.15;6.32;;;;;;;;;;5074248;28;20025;-79
2024/01/25 05:13:36;;;;;;;41.53;6.60;;;;;;;;;;5073587;28;20426;-78
2024/01/25 05:16:02;;;;;;;35.88;7.47;;;;;;;;;;5073738;28;20029;-80
2024/01/25 05:18:28;;;;;;;45.45;7.22;;;;;;;;;;5061484;28;20025;-78
2024/01/25 05:20:54;;;;;;;37.50;6.63;;;;;;;;;;5056356;28;20018;-78
2024/01/25 05:23:20;;;;;;;40.33;6.32;;;;;;;;;;5052625;28;20017;-80
2024/01/25 05:25:46;;;;;;;42.33;7.07;;;;;;;;;;5051849;28;20025;-80
2024/01/25 05:28:12;;;;;;;37.95;6.68;;;;;;;;;;5065690;28;20515;-79
2024/01/25 05:30:39;;;;;;;39.92;6.80;;;;;;;;;;5070617;28;20024;-80
2024/01/25 05:33:05;;;;;;;54.03;8.18;;;;;;;;;;5070706;28;20497;-80
2024/01/25 05:35:34;;;;;;;45.05;8.43;;;;;;;;;;5070345;28;20055;-79
2024/01/25 05:38:00;;;;;;;37.55;9.05;;;;;;;;;;5072436;28;20044;-80
2024/01/25 05:40:26;;;;;;;50.03;8.63;;;;;;;;;;5070645;28;20392;-80
2024/01/25 05:42:52;;;;;;;39.45;7.25;;;;;;;;;;5070763;28;20016;-80
2024/01/25 05:45:20;;;;;;;39.55;6.10;;;;;;;;;;5070811;28;20024;-80
2024/01/25 05:47:46;;;;;;;40.28;6.75;;;;;;;;;;5070559;28;20811;-80
2024/01/25 05:50:12;;;;;;;42.88;7.40;;;;;;;;;;5070774;28;20020;-82
2024/01/25 05:52:38;;;;;;;41.33;8.35;;;;;;;;;;5073787;28;20025;-81
2024/01/25 05:55:05;;;;;;;42.63;6.50;;;;;;;;;;5075588;28;20105;-82
2024/01/25 05:57:31;;;;;;;41.00;7.88;;;;;;;;;;5074283;28;20094;-79
2024/01/25 05:59:58;;;;;;;43.85;9.07;;;;;;;;;;5075735;28;20013;-79
2024/01/25 06:02:24;;;;;;;45.13;8.98;;;;;;;;;;5075654;28;20048;-79
2024/01/25 06:04:50;;;;;;;46.83;10.70;;;;;;;;;;5073922;28;20073;-79
2024/01/25 06:07:16;;;;;;;45.40;8.25;;;;;;;;;;5074135;28;20028;-79
2024/01/25 06:09:42;;;;;;;49.70;11.10;;;;;;;;;;5075535;28;20032;-79
2024/01/25 06:12:08;;;;;;;53.65;12.75;;;;;;;;;;5074194;28;20468;-79
2024/01/25 06:14:34;;;;;;;51.05;12.82;;;;;;;;;;5073790;28;20036;-79
2024/01/25 06:17:00;;;;;;;53.05;11.85;;;;;;;;;;5074001;28;20024;-79
2024/01/25 06:19:26;;;;;;;136.77;43.42;;;;;;;;;;5073938;28;20025;-80
2024/01/25 06:21:52;;;;;;;105.72;35.83;;;;;;;;;;5073733;28;20074;-80
2024/01/25 06:24:18;;;;;;;97.25;30.65;;;;;;;;;;5073943;28;20468;-80
2024/01/25 06:26:44;;;;;;;76.90;22.73;;;;;;;;;;5073623;28;20035;-80
2024/01/25 06:29:10;;;;;;;53.63;15.80;;;;;;;;;;5073855;28;20025;-79
2024/01/25 06:31:43;;;;;;;52.97;13.43;;;;;;;;;;5073352;28;20633;-79
2024/01/25 06:34:09;;;;;;;46.22;10.00;;;;;;;;;;5073688;28;20021;-79
2024/01/25 06:36:35;;;;;;;33.95;9.93;;;;;;;;;;5074577;28;20479;-78
2024/01/25 06:39:01;;;;;;;42.38;10.25;;;;;;;;;;5074950;28;20028;-80
2024/01/25 06:41:27;;;;;;;57.03;12.05;;;;;;;;;;5075164;28;20029;-79
2024/01/25 06:43:53;;;;;;;49.25;11.48;;;;;;;;;;5074466;28;20396;-80
2024/01/25 06:46:19;;;;;;;45.63;9.13;;;;;;;;;;5073115;28;20078;-79
2024/01/25 06:48:45;;;;;;;46.25;11.07;;;;;;;;;;5074541;28;20041;-78
2024/01/25 06:51:11;;;;;;;46.60;10.95;;;;;;;;;;5075159;28;20086;-78
2024/01/25 06:53:37;;;;;;;48.72;11.20;;;;;;;;;;5074424;28;20028;-78
2024/01/25 06:56:03;;;;;;;62.95;9.55;;;;;;;;;;5057693;28;20025;-81
2024/01/25 06:58:29;;;;;;;42.70;9.98;;;;;;;;;;5053629;28;20033;-80
2024/01/25 07:00:55;;;;;;;47.28;9.45;;;;;;;;;;5069845;28;20464;-80
2024/01/25 07:03:21;;;;;;;47.00;9.15;;;;;;;;;;5073839;28;20021;-82
2024/01/25 07:05:47;;;;;;;52.95;10.63;;;;;;;;;;5056307;28;20040;-85
2024/01/25 07:08:14;;;;;;;50.63;11.02;;;;;;;;;;5054158;28;20028;-86
2024/01/25 07:10:41;;;;;;;44.10;10.07;;;;;;;;;;5053144;28;20036;-87
2024/01/25 07:13:07;;;;;;;53.95;9.73;;;;;;;;;;5053522;28;20488;-87
2024/01/25 07:15:33;;;;;;;38.80;10.07;;;;;;;;;;5054516;28;20114;-87
2024/01/25 07:17:59;;;;;;;38.42;8.98;;;;;;;;;;5053470;28;20079;-88
2024/01/25 07:20:25;;;;;;;37.58;9.43;;;;;;;;;;5053776;28;20048;-88
2024/01/25 07:22:51;;;;;;;40.03;10.23;;;;;;;;;;5053940;28;20116;-88
2024/01/25 07:25:17;;;;;;;41.95;8.65;;;;;;;;;;5055231;28;20067;-88
2024/01/25 07:27:46;;;;;;;36.88;10.15;;;;;;;;;;5056974;28;20025;-88
2024/01/25 07:30:13;;;;;;;44.25;9.77;;;;;;;;;;5063802;28;20017;-88
2024/01/25 07:32:41;;;;;;;48.40;12.48;;;;;;;;;;5077379;28;20040;-88
2024/01/25 07:35:07;;;;;;;53.03;13.20;;;;;;;;;;5077473;28;20079;-88
2024/01/25 07:37:33;;;;;;;55.78;12.43;;;;;;;;;;5076935;28;20033;-88
2024/01/25 07:40:00;;;;;;;51.05;12.43;;;;;;;;;;5073125;28;20029;-88
2024/01/25 07:42:28;;;;;;;53.33;12.57;;;;;;;;;;5054269;28;20035;-88
2024/01/25 07:44:54;;;;;;;63.90;13.43;;;;;;;;;;5052429;28;20025;-89
2024/01/25 07:47:20;;;;;;;68.75;14.85;;;;;;;;;;5052389;28;20033;-88
2024/01/25 07:49:46;;;;;;;47.35;12.88;;;;;;;;;;5052124;28;20621;-88
2024/01/25 07:52:12;;;;;;;46.20;10.68;;;;;;;;;;5052274;28;20275;-88
2024/01/25 07:54:38;;;;;;;45.42;11.00;;;;;;;;;;5052788;28;20025;-88
2024/01/25 07:57:04;;;;;;;57.45;13.50;;;;;;;;;;5053054;28;20051;-88
2024/01/25 07:59:30;;;;;;;55.45;13.02;;;;;;;;;;5052553;28;20044;-89
2024/01/25 08:01:56;;;;;;;43.15;11.18;;;;;;;;;;5052203;28;20041;-89
2024/01/25 08:04:22;;;;;;;48.72;13.88;;;;;;;;;;5052527;28;20025;-89
2024/01/25 08:06:48;;;;;;;50.85;16.88;;;;;;;;;;5052180;28;20075;-88
2024/01/25 08:09:14;;;;;;;48.83;14.90;;;;;;;;;;5052418;28;20025;-89
2024/01/25 08:11:42;;;;;;;41.85;11.63;;;;;;;;;;5052386;28;20138;-88
2024/01/25 08:14:08;;;;;;;40.45;11.25;;;;;;;;;;5051937;28;20017;-88
2024/01/25 08:16:35;;;;;;;53.78;12.07;;;;;;;;;;5052387;28;20055;-87
2024/01/25 08:19:01;;;;;;;43.70;12.25;;;;;;;;;;5052169;28;20110;-88
2024/01/25 08:21:27;;;;;;;41.25;10.80;;;;;;;;;;5053303;28;20519;-88
2024/01/25 08:23:53;;;;;;;45.30;12.55;;;;;;;;;;5051883;28;20438;-87
2024/01/25 08:26:19;;;;;;;50.13;10.93;;;;;;;;;;5052380;28;20025;-90
2024/01/25 08:28:45;;;;;;;37.30;10.90;;;;;;;;;;5051856;28;20045;-83
2024/01/25 08:31:11;;;;;;;48.63;14.32;;;;;;;;;;5051765;28;20029;-87
2024/01/25 08:33:43;;;;;;;58.78;19.05;;;;;;;;;;5051330;28;20028;-82
2024/01/25 08:36:09;;;;;;;62.15;18.35;;;;;;;;;;5051175;28;20025;-82
2024/01/25 08:38:36;;;;;;;69.25;22.42;;;;;;;;;;5051515;28;20120;-80
2024/01/25 08:41:02;;;;;;;59.65;12.43;;;;;;;;;;5051427;28;20033;-80
2024/01/25 08:43:28;;;;;;;59.72;15.23;;;;;;;;;;5052727;28;20017;-79
2024/01/25 08:45:54;;;;;;;52.38;13.13;;;;;;;;;;5051108;28;20071;-80
2024/01/25 08:48:20;;;;;;;38.88;10.52;;;;;;;;;;5051192;28;20385;-79
2024/01/25 08:50:48;;;;;;;55.28;10.98;;;;;;;;;;5050805;28;20033;-79
2024/01/25 08:53:16;;;;;;;50.60;11.20;;;;;;;;;;5051146;28;20059;-84
2024/01/25 08:55:42;;;;;;;45.20;11.10;;;;;;;;;;5051125;28;20029;-80
2024/01/25 08:58:08;;;;;;;51.42;10.07;;;;;;;;;;5051082;28;20051;-80
2024/01/25 09:00:34;;;;;;;53.75;10.63;;;;;;;;;;5052224;28;20024;-78
2024/01/25 09:03:00;;;;;;;45.33;11.05;;;;;;;;;;5051734;28;20193;-83
2024/01/25 09:05:28;;;;;;;49.40;10.13;;;;;;;;;;5052396;28;20504;-83
2024/01/25 09:07:54;;;;;;;43.53;9.85;;;;;;;;;;5050884;28;20502;-81
2024/01/25 09:10:20;;;;;;;36.28;8.88;;;;;;;;;;5050962;28;20067;-77
2024/01/25 09:12:46;;;;;;;37.63;9.50;;;;;;;;;;5051949;28;20024;-76
2024/01/25 09:15:12;;;;;;;46.85;9.38;;;;;;;;;;5050892;28;20384;-78
2024/01/25 09:17:38;;;;;;;43.22;9.30;;;;;;;;;;5052061;28;20029;-76
2024/01/25 09:20:04;;;;;;;43.72;9.32;;;;;;;;;;5050891;28;20492;-76
2024/01/25 09:22:30;;;;;;;43.45;10.07;;;;;;;;;;5050920;28;20029;-78
2024/01/25 09:24:56;;;;;;;33.72;8.45;;;;;;;;;;5051195;28;20499;-78
2024/01/25 09:27:22;;;;;;;40.90;10.65;;;;;;;;;;5056200;28;20025;-77
2024/01/25 09:29:48;;;;;;;36.85;9.02;;;;;;;;;;5054763;28;20025;-77
2024/01/25 09:32:14;;;;;;;45.90;10.20;;;;;;;;;;5056274;28;20024;-77
2024/01/25 09:34:40;;;;;;;41.05;9.90;;;;;;;;;;5055667;28;20028;-78
2024/01/25 09:37:06;;;;;;;39.22;9.18;;;;;;;;;;5056564;28;20017;-78
2024/01/25 09:39:33;;;;;;;38.47;9.75;;;;;;;;;;5054977;28;20021;-78
2024/01/25 09:41:59;;;;;;;37.03;9.45;;;;;;;;;;5056283;28;20025;-78
2024/01/25 09:44:25;;;;;;;35.42;8.85;;;;;;;;;;5055282;28;20024;-77
2024/01/25 09:46:54;;;;;;;42.83;8.98;;;;;;;;;;5056296;28;20029;-76
2024/01/25 09:49:20;;;;;;;39.50;9.02;;;;;;;;;;5056297;28;20029;-76
2024/01/25 09:51:46;;;;;;;40.35;10.93;;;;;;;;;;5054462;28;20025;-76
2024/01/25 09:54:13;;;;;;;45.13;9.95;;;;;;;;;;5054507;28;20021;-78
2024/01/25 09:56:42;;;;;;;29.60;8.82;;;;;;;;;;5055722;28;20021;-78
2024/01/25 09:59:08;;;;;;;33.50;9.68;;;;;;;;;;5054379;28;20025;-78
2024/01/25 10:01:35;;;;;;;40.92;8.65;;;;;;;;;;5054079;28;20049;-78
2024/01/25 10:04:01;;;;;;;41.42;9.93;;;;;;;;;;5055679;28;20036;-78
2024/01/25 10:06:27;;;;;;;49.45;10.93;;;;;;;;;;5055612;28;20032;-78
2024/01/25 10:08:53;;;;;;;42.83;8.77;;;;;;;;;;5053959;28;20051;-78
2024/01/25 10:11:19;;;;;;;48.85;10.45;;;;;;;;;;5055437;28;20013;-78
2024/01/25 10:13:46;;;;;;;51.10;9.73;;;;;;;;;;5053960;28;20112;-78
2024/01/25 10:16:14;;;;;;;42.25;8.68;;;;;;;;;;5054071;28;20537;-78
2024/01/25 10:18:41;;;;;;;42.88;8.85;;;;;;;;;;5053811;28;20028;-77
2024/01/25 10:21:07;;;;;;;36.83;8.73;;;;;;;;;;5054124;28;20032;-78
2024/01/25 10:23:33;;;;;;;39.40;9.13;;;;;;;;;;5054077;28;20021;-78
2024/01/25 10:25:59;;;;;;;42.28;9.70;;;;;;;;;;5054900;28;20487;-78
2024/01/25 10:28:28;;;;;;;38.63;9.63;;;;;;;;;;5053810;28;20029;-78
2024/01/25 10:30:57;;;;;;;37.97;9.23;;;;;;;;;;5054870;28;20013;-78
2024/01/25 10:33:23;;;;;;;31.33;7.65;;;;;;;;;;5053808;28;20060;-78
2024/01/25 10:35:51;;;;;;;44.55;11.65;;;;;;;;;;5054421;28;20052;-78
2024/01/25 10:38:20;;;;;;;25.85;7.90;;;;;;;;;;5052661;28;20033;-78
2024/01/25 10:40:47;;;;;;;46.80;9.85;;;;;;;;;;5053423;28;20033;-78
2024/01/25 10:43:13;;;;;;;32.10;8.15;;;;;;;;;;5054713;28;20017;-78
2024/01/25 10:45:39;;;;;;;38.65;10.02;;;;;;;;;;5054845;28;20017;-77
2024/01/25 10:48:05;;;;;;;41.88;10.73;;;;;;;;;;5054664;28;20025;-77
2024/01/25 10:50:31;;;;;;;50.88;10.80;;;;;;;;;;5053339;28;20029;-78
2024/01/25 10:52:58;;;;;;;39.53;8.80;;;;;;;;;;5053273;28;20079;-78
2024/01/25 10:55:25;;;;;;;38.65;10.40;;;;;;;;;;5053341;28;20033;-77
2024/01/25 10:57:55;;;;;;;37.10;8.90;;;;;;;;;;5054257;28;20119;-79
2024/01/25 11:00:22;;;;;;;42.17;8.50;;;;;;;;;;5053335;28;20025;-80
2024/01/25 11:02:49;;;;;;;37.53;9.60;;;;;;;;;;5052756;28;20128;-79
2024/01/25 11:05:17;;;;;;;36.42;9.40;;;;;;;;;;5053305;28;20025;-80
2024/01/25 11:07:46;;;;;;;41.78;9.40;;;;;;;;;;5053115;28;20029;-80
2024/01/25 11:10:14;;;;;;;43.17;10.18;;;;;;;;;;5053273;28;20025;-81
2024/01/25 11:12:57;;;;;;;42.83;8.40;;;;;;;;;;5053388;28;20422;-80
2024/01/25 11:15:24;;;;;;;36.70;10.55;;;;;;;;;;5054387;28;20095;-81
2024/01/25 11:17:54;;;;;;;37.70;9.52;;;;;;;;;;5052854;28;20025;-81
2024/01/25 11:20:27;;;;;;;49.08;9.57;;;;;;;;;;5053149;28;20017;-79
2024/01/25 11:22:57;;;;;;;31.35;9.23;;;;;;;;;;5052942;28;20545;-81
2024/01/25 11:25:24;;;;;;;28.88;9.05;;;;;;;;;;5052846;28;20025;-80
2024/01/25 11:27:50;;;;;;;36.63;10.20;;;;;;;;;;5052957;28;20090;-80
2024/01/25 11:30:21;;;;;;;38.40;8.88;;;;;;;;;;5052859;28;20385;-80
2024/01/25 11:32:48;;;;;;;31.98;8.98;;;;;;;;;;5052422;28;20028;-79
2024/01/25 11:35:16;;;;;;;47.50;10.02;;;;;;;;;;5052701;28;20078;-80
2024/01/25 11:37:49;;;;;;;37.47;7.75;;;;;;;;;;5052654;28;20086;-80
2024/01/25 11:40:16;;;;;;;29.13;8.27;;;;;;;;;;5052545;28;20116;-80
2024/01/25 11:42:44;;;;;;;39.30;10.65;;;;;;;;;;5052792;28;20092;-80
2024/01/25 11:45:14;;;;;;;44.95;11.88;;;;;;;;;;5052292;28;20083;-80
2024/01/25 11:47:40;;;;;;;36.50;10.23;;;;;;;;;;5052419;28;20033;-81
2024/01/25 11:50:07;;;;;;;35.35;9.10;;;;;;;;;;5052332;28;20541;-81
2024/01/25 11:52:33;;;;;;;43.25;10.02;;;;;;;;;;5052730;28;20059;-81
2024/01/25 11:55:06;;;;;;;40.95;9.98;;;;;;;;;;5053886;28;20035;-80
2024/01/25 11:57:33;;;;;;;37.20;7.18;;;;;;;;;;5052858;28;20054;-81
2024/01/25 11:59:59;;;;;;;39.17;10.43;;;;;;;;;;5053826;28;20017;-80
2024/01/25 12:02:26;;;;;;;41.92;10.88;;;;;;;;;;5057873;28;20040;-78
2024/01/25 12:04:53;;;;;;;46.50;12.88;;;;;;;;;;5057423;28;20380;-76
2024/01/25 12:07:20;;;;;;;45.47;12.52;;;;;;;;;;5058646;28;20021;-77
2024/01/25 12:09:57;;;;;;;41.17;10.18;;;;;;;;;;5052655;28;20108;-79
2024/01/25 12:12:23;;;;;;;44.00;11.00;;;;;;;;;;5052102;28;20055;-79
2024/01/25 12:14:49;;;;;;;43.05;12.10;;;;;;;;;;5034872;28;20056;-80
2024/01/25 12:17:15;;;;;;;35.88;9.18;;;;;;;;;;5051974;28;20465;-80
2024/01/25 12:19:41;;;;;;;41.08;10.30;;;;;;;;;;5051566;28;20021;-77
2024/01/25 12:22:07;;;;;;;44.33;11.57;;;;;;;;;;5051248;28;20434;-76
2024/01/25 12:24:33;;;;;;;30.05;9.52;;;;;;;;;;5051465;28;20120;-79
2024/01/25 12:26:59;;;;;;;48.47;11.80;;;;;;;;;;5051412;28;20452;-78
2024/01/25 12:29:25;;;;;;;39.83;12.25;;;;;;;;;;5051621;28;20175;-78
2024/01/25 12:31:51;;;;;;;43.90;10.77;;;;;;;;;;5051473;28;20477;-78
2024/01/25 12:34:17;;;;;;;35.95;9.50;;;;;;;;;;5052676;28;20111;-78
2024/01/25 12:36:43;;;;;;;38.92;10.38;;;;;;;;;;5051473;28;20048;-78
2024/01/25 12:39:12;;;;;;;27.88;8.73;;;;;;;;;;5051191;28;20067;-77
2024/01/25 12:41:38;;;;;;;49.22;12.70;;;;;;;;;;5052773;28;20017;-78
2024/01/25 12:44:04;;;;;;;43.97;10.80;;;;;;;;;;5051038;28;20025;-76
2024/01/25 12:46:30;;;;;;;29.17;7.63;;;;;;;;;;5052523;28;20013;-76
2024/01/25 12:48:58;;;;;;;35.03;11.30;;;;;;;;;;5050949;28;20033;-76
2024/01/25 12:51:24;;;;;;;37.10;9.88;;;;;;;;;;5052581;28;20021;-76
2024/01/25 12:53:50;;;;;;;43.17;10.20;;;;;;;;;;5050953;28;20044;-76
2024/01/25 12:56:16;;;;;;;34.00;9.90;;;;;;;;;;5051070;28;20120;-76
2024/01/25 12:58:42;;;;;;;43.15;11.15;;;;;;;;;;5051246;28;20068;-76
2024/01/25 13:01:08;;;;;;;39.13;10.57;;;;;;;;;;5050107;28;20648;-77
2024/01/25 13:03:34;;;;;;;34.67;9.48;;;;;;;;;;5051013;28;20021;-76
2024/01/25 13:06:03;;;;;;;39.85;9.10;;;;;;;;;;5050865;28;20021;-76
2024/01/25 13:08:29;;;;;;;37.83;10.10;;;;;;;;;;5050833;28;20495;-77
2024/01/25 13:10:55;;;;;;;42.45;11.27;;;;;;;;;;5050794;28;20052;-77
2024/01/25 13:13:21;;;;;;;38.58;10.15;;;;;;;;;;5051953;28;20380;-77
2024/01/25 13:15:47;;;;;;;37.75;9.90;;;;;;;;;;5050959;28;20040;-76
2024/01/25 13:18:13;;;;;;;41.20;10.00;;;;;;;;;;5050650;28;20025;-76
2024/01/25 13:20:39;;;;;;;39.38;10.10;;;;;;;;;;5050898;28;20021;-76
2024/01/25 13:23:06;;;;;;;37.33;10.20;;;;;;;;;;5050628;28;20021;-77
2024/01/25 13:25:32;;;;;;;30.27;8.98;;;;;;;;;;5050747;28;20021;-75
2024/01/25 13:27:58;;;;;;;38.25;10.75;;;;;;;;;;5050455;28;20029;-76
2024/01/25 13:30:24;;;;;;;36.85;9.85;;;;;;;;;;5050726;28;20087;-76
2024/01/25 13:32:50;;;;;;;37.95;8.93;;;;;;;;;;5052038;28;20057;-75
2024/01/25 13:35:16;;;;;;;43.67;10.40;;;;;;;;;;5050423;28;20080;-76
2024/01/25 13:37:42;;;;;;;27.60;7.65;;;;;;;;;;5050765;28;20025;-76
2024/01/25 13:40:08;;;;;;;41.05;11.40;;;;;;;;;;5050703;28;20025;-76
2024/01/25 13:42:34;;;;;;;40.05;13.40;;;;;;;;;;5053233;28;20025;-77
2024/01/25 13:45:00;;;;;;;41.20;13.43;;;;;;;;;;5051744;28;20120;-78
2024/01/25 13:47:27;;;;;;;28.77;8.98;;;;;;;;;;5053309;28;20056;-77
2024/01/25 13:49:53;;;;;;;40.20;11.13;;;;;;;;;;5052726;28;20021;-78
2024/01/25 13:52:20;;;;;;;27.90;9.15;;;;;;;;;;5052160;28;20032;-77
2024/01/25 13:54:46;;;;;;;53.63;14.43;;;;;;;;;;5052148;28;20066;-79
2024/01/25 13:57:12;;;;;;;41.00;11.88;;;;;;;;;;5051687;28;20079;-79
2024/01/25 13:59:38;;;;;;;27.52;8.80;;;;;;;;;;5052075;28;20017;-78
2024/01/25 14:02:04;;;;;;;36.45;11.80;;;;;;;;;;5050081;28;20057;-79
2024/01/25 14:04:30;;;;;;;33.40;10.38;;;;;;;;;;5051790;28;20372;-79
2024/01/25 14:06:56;;;;;;;50.10;13.95;;;;;;;;;;5050377;28;20030;-78
2024/01/25 14:09:22;;;;;;;44.30;13.55;;;;;;;;;;5050699;28;20029;-79
2024/01/25 14:11:48;;;;;;;47.72;16.02;;;;;;;;;;5052466;28;20028;-79
2024/01/25 14:14:14;;;;;;;35.13;9.75;;;;;;;;;;5054578;28;20053;-77
2024/01/25 14:16:40;;;;;;;42.42;16.27;;;;;;;;;;5055029;28;20032;-76
2024/01/25 14:19:06;;;;;;;44.88;13.05;;;;;;;;;;5054661;28;20112;-77
2024/01/25 14:21:32;;;;;;;47.50;15.27;;;;;;;;;;5054575;28;20028;-77